Aviation Digital Data Service (ADDS)

Output produced by METARs form (1236 UTC 26 February 2017)
found at http://aviationweather.gov/adds/metars/
 
KBWI 261135Z 2612/2718 31015G23KT P6SM BKN050 
     FM261900 28013G20KT P6SM SCT050 
     FM262300 28007KT P6SM SKC 
     FM271000 VRB03KT P6SM BKN100 
     FM271500 21007KT P6SM OVC090